Time;durP1;ratioP1;P1;durP2;ratioP2;P2;SDS_P1;SDS_P2;PMS_P1;PMS_P2;Temp;Humidity;BMP_temperature;BMP_pressure;BME280_temperature;BME280_humidity;BME280_pressure;Samples;Min_cycle;Max_cycle;Signal;HPM_P1;HPM_P2
2023/09/05 00:04:46;;;;;;;7.10;5.80;;;;;;;11.26;84.84;100629.27;432031;1268;182538;-68
2023/09/05 00:14:51;;;;;;;8.70;5.80;;;;;;;11.18;85.25;100624.93;432104;1270;140283;-68
2023/09/05 00:24:57;;;;;;;11.30;5.80;;;;;;;11.08;85.30;100620.88;432112;1269;139788;-68
2023/09/05 00:35:03;;;;;;;10.20;6.40;;;;;;;10.99;85.58;100619.56;431999;1268;139722;-69
2023/09/05 00:45:11;;;;;;;7.10;5.30;;;;;;;10.89;86.29;100617.75;432150;1269;139921;-70
2023/09/05 00:55:18;;;;;;;8.50;6.10;;;;;;;10.81;86.67;100617.45;432949;1269;141452;-69
2023/09/05 01:05:28;;;;;;;7.10;5.30;;;;;;;10.73;87.29;100613.96;432327;1265;139356;-69
2023/09/05 01:15:34;;;;;;;7.20;5.80;;;;;;;10.64;87.73;100606.31;432712;1266;140735;-68
2023/09/05 01:25:40;;;;;;;7.70;5.20;;;;;;;10.57;88.18;100605.08;432399;1269;139459;-67
2023/09/05 01:35:46;;;;;;;9.20;5.90;;;;;;;10.48;88.34;100607.61;432254;1267;140678;-69
2023/09/05 01:45:51;;;;;;;9.50;5.70;;;;;;;10.40;88.46;100606.56;432205;1268;139579;-69
2023/09/05 01:55:57;;;;;;;9.90;6.30;;;;;;;10.32;88.81;100604.30;432221;1268;140109;-68
2023/09/05 02:06:03;;;;;;;8.00;5.30;;;;;;;10.24;89.60;100601.16;432776;1270;139238;-68
2023/09/05 02:16:09;;;;;;;7.20;6.00;;;;;;;10.15;89.63;100594.23;432936;1268;141158;-69
2023/09/05 02:26:15;;;;;;;9.90;6.40;;;;;;;10.06;90.01;100590.77;432362;1270;141271;-69
2023/09/05 02:36:21;;;;;;;8.30;5.30;;;;;;;9.99;90.37;100597.05;432428;1269;140370;-69
2023/09/05 02:46:27;;;;;;;11.00;6.50;;;;;;;9.94;91.32;100597.96;432584;1269;139058;-70
2023/09/05 02:56:33;;;;;;;10.50;6.60;;;;;;;9.88;91.58;100586.70;432414;1268;139466;-70
2023/09/05 03:06:39;;;;;;;11.00;5.90;;;;;;;9.80;91.71;100583.71;432444;1270;139480;-68
2023/09/05 03:16:44;;;;;;;9.00;6.20;;;;;;;9.72;91.97;100587.05;432457;1264;141134;-69
2023/09/05 03:26:50;;;;;;;9.90;6.20;;;;;;;9.66;92.50;100596.20;432312;1268;139855;-68
2023/09/05 03:36:56;;;;;;;12.60;6.20;;;;;;;9.63;92.84;100596.19;432461;1268;139497;-70
2023/09/05 03:47:02;;;;;;;13.30;5.60;;;;;;;9.61;93.49;100596.77;432287;1269;140812;-68
2023/09/05 03:57:08;;;;;;;9.00;6.20;;;;;;;9.57;93.32;100601.36;432598;1269;139913;-68
2023/09/05 04:07:14;;;;;;;9.80;7.00;;;;;;;9.59;94.29;100602.86;432351;1265;139123;-68
2023/09/05 04:17:19;;;;;;;11.40;6.40;;;;;;;9.64;94.52;100617.64;432167;1267;140342;-68
2023/09/05 04:27:25;;;;;;;8.20;6.40;;;;;;;9.77;94.37;100619.88;432215;1267;140937;-68
2023/09/05 04:37:32;;;;;;;16.60;7.60;;;;;;;10.01;94.92;100621.43;432522;1270;139303;-69
2023/09/05 04:47:38;;;;;;;14.80;8.10;;;;;;;10.35;95.13;100623.59;432037;1267;141116;-69
2023/09/05 04:57:44;;;;;;;11.20;7.60;;;;;;;10.82;95.70;100627.52;432178;1270;140037;-69
2023/09/05 05:07:50;;;;;;;11.60;7.40;;;;;;;11.40;96.38;100633.44;432222;1269;140158;-69
2023/09/05 05:17:55;;;;;;;12.80;7.60;;;;;;;12.36;97.05;100634.94;432135;1270;139697;-68
2023/09/05 05:28:02;;;;;;;10.30;6.80;;;;;;;15.95;99.41;100638.11;432396;1267;141170;-68
2023/09/05 05:38:07;;;;;;;16.80;6.90;;;;;;;23.12;93.65;100627.60;432445;1270;140897;-68
2023/09/05 05:48:13;;;;;;;8.80;5.70;;;;;;;28.47;80.14;100622.20;432432;1270;141264;-70
2023/09/05 05:58:19;;;;;;;7.60;4.50;;;;;;;32.38;66.72;100615.76;432599;1267;140867;-69
2023/09/05 06:08:23;;;;;;;;;;;;;;;35.57;57.39;100616.25;432086;1270;139668;-68
2023/09/05 06:18:30;;;;;;;6.00;3.80;;;;;;;38.51;46.30;100601.46;432424;1270;128500;-67
2023/09/05 06:28:36;;;;;;;8.20;4.00;;;;;;;40.79;38.25;100596.38;432010;1270;139112;-70
2023/09/05 06:38:42;;;;;;;6.60;3.80;;;;;;;43.06;34.14;100596.48;432198;1269;139774;-72
2023/09/05 06:48:48;;;;;;;5.40;2.90;;;;;;;44.89;29.63;100601.67;432263;1267;139228;-73
2023/09/05 06:58:53;;;;;;;4.10;3.00;;;;;;;46.08;27.20;100600.36;432196;1269;139971;-68
2023/09/05 07:08:59;;;;;;;3.30;2.80;;;;;;;47.36;24.83;100602.40;432219;1267;139755;-70
2023/09/05 07:19:05;;;;;;;5.00;2.60;;;;;;;48.80;23.27;100605.45;435097;1267;139725;-73
2023/09/05 07:29:13;;;;;;;7.50;3.90;;;;;;;50.41;21.81;100610.09;434918;1270;138849;-70
2023/09/05 07:39:18;;;;;;;4.80;3.00;;;;;;;51.38;20.30;100601.21;435315;1267;139476;-72
2023/09/05 07:49:24;;;;;;;7.90;3.20;;;;;;;52.20;19.43;100595.07;435070;1268;139260;-73
2023/09/05 07:59:31;;;;;;;3.50;3.10;;;;;;;52.61;18.09;100595.59;433918;1267;140963;-72
2023/09/05 08:09:37;;;;;;;4.90;2.70;;;;;;;52.36;17.29;100602.80;433023;1265;138877;-80
2023/09/05 08:19:44;;;;;;;3.90;3.20;;;;;;;52.40;16.81;100604.67;434861;1267;139696;-69
2023/09/05 08:29:50;;;;;;;2.40;2.00;;;;;;;51.88;16.55;100599.89;432366;1269;138795;-70
2023/09/05 08:39:56;;;;;;;4.50;2.70;;;;;;;49.66;16.61;100593.77;434260;1267;139019;-70
2023/09/05 08:50:04;;;;;;;2.90;1.90;;;;;;;43.20;18.21;100597.25;432610;1265;138953;-68
2023/09/05 09:00:11;;;;;;;7.20;2.50;;;;;;;37.70;20.97;100604.77;432309;1270;139681;-62
2023/09/05 09:10:21;;;;;;;2.20;1.90;;;;;;;34.66;23.57;100600.65;432591;1267;139076;-66
2023/09/05 09:20:28;;;;;;;2.90;1.50;;;;;;;32.75;25.47;100591.89;432423;1270;138938;-66
2023/09/05 09:30:34;;;;;;;2.60;2.00;;;;;;;31.52;26.73;100588.45;432084;1266;139224;-73
2023/09/05 09:40:41;;;;;;;3.50;1.70;;;;;;;30.60;27.47;100585.84;434601;1266;138497;-74
2023/09/05 09:50:48;;;;;;;4.10;2.00;;;;;;;29.97;27.96;100584.56;434670;1269;138674;-75
2023/09/05 10:00:56;;;;;;;13.60;2.50;;;;;;;29.26;28.68;100584.20;435057;1265;139143;-84
2023/09/05 10:11:03;;;;;;;3.60;1.70;;;;;;;28.52;29.70;100578.77;434897;1265;139839;-73
2023/09/05 10:21:10;;;;;;;4.40;2.00;;;;;;;27.79;30.95;100574.73;434951;1267;138642;-75
2023/09/05 10:31:16;;;;;;;3.80;2.00;;;;;;;27.22;31.97;100562.86;435182;1269;138640;-70
2023/09/05 10:41:38;;;;;;;7.20;2.50;;;;;;;26.61;32.95;100555.03;434959;1266;138963;-71
2023/09/05 10:52:19;;;;;;;6.10;2.60;;;;;;;26.17;33.87;100550.59;432428;1265;139151;-71
2023/09/05 11:02:30;;;;;;;3.00;1.60;;;;;;;25.85;33.57;100542.73;434043;1269;138821;-66
2023/09/05 11:12:39;;;;;;;2.90;1.80;;;;;;;25.36;33.57;100527.77;433599;1268;138690;-68
2023/09/05 11:22:45;;;;;;;4.80;2.30;;;;;;;25.01;34.51;100511.59;433422;1265;140100;-72
2023/09/05 11:32:52;;;;;;;2.10;1.90;;;;;;;24.92;35.34;100498.25;433261;1265;140252;-72
2023/09/05 11:43:06;;;;;;;2.80;1.90;;;;;;;24.66;35.19;100490.27;434782;1267;138598;-68
2023/09/05 11:53:14;;;;;;;3.10;2.60;;;;;;;24.21;35.30;100489.81;432640;1265;139733;-62
2023/09/05 12:03:20;;;;;;;2.20;1.90;;;;;;;23.79;35.69;100480.96;432184;1265;138782;-75
2023/09/05 12:13:39;;;;;;;2.40;1.90;;;;;;;23.64;36.33;100466.20;434227;1265;138529;-67
2023/09/05 12:23:46;;;;;;;3.30;2.10;;;;;;;23.59;36.12;100454.86;437294;1265;138672;-75
2023/09/05 12:33:52;;;;;;;3.20;2.10;;;;;;;23.54;36.14;100443.22;435142;1267;138731;-74
2023/09/05 12:43:58;;;;;;;3.40;2.30;;;;;;;23.42;35.19;100432.70;435182;1265;139157;-74
2023/09/05 12:54:04;;;;;;;4.70;1.90;;;;;;;23.32;35.53;100420.14;435125;1265;138788;-71
2023/09/05 13:04:10;;;;;;;4.10;2.60;;;;;;;23.26;35.71;100415.72;432662;1265;139483;-69
2023/09/05 13:14:17;;;;;;;7.70;3.70;;;;;;;23.20;35.57;100414.73;432508;1267;139511;-64
2023/09/05 13:24:23;;;;;;;5.20;4.00;;;;;;;23.16;35.88;100396.88;432328;1264;140077;-66
2023/09/05 13:34:29;;;;;;;4.20;2.70;;;;;;;23.13;36.44;100387.38;432294;1268;139312;-66
2023/09/05 13:44:37;;;;;;;3.90;2.20;;;;;;;23.11;37.04;100375.83;432148;1267;139998;-67
2023/09/05 13:54:43;;;;;;;3.40;1.80;;;;;;;23.08;37.53;100367.19;432094;1268;138508;-65
2023/09/05 14:04:52;;;;;;;6.60;2.40;;;;;;;23.02;37.91;100354.94;431896;1270;139509;-65
2023/09/05 14:14:58;;;;;;;3.30;2.50;;;;;;;23.00;37.99;100354.98;432261;1269;139806;-67
2023/09/05 14:25:04;;;;;;;5.70;2.50;;;;;;;23.02;37.95;100349.98;432540;1267;139706;-75
2023/09/05 14:35:11;;;;;;;3.60;2.40;;;;;;;23.04;38.12;100341.06;432779;1269;139045;-73
2023/09/05 14:45:17;;;;;;;2.30;1.70;;;;;;;23.04;38.23;100334.10;432542;1269;139495;-62
2023/09/05 14:55:23;;;;;;;4.20;2.50;;;;;;;23.00;38.25;100320.71;433101;1267;138623;-62
2023/09/05 15:05:29;;;;;;;3.40;1.80;;;;;;;22.94;38.66;100310.45;432603;1265;143277;-62
2023/09/05 15:15:35;;;;;;;5.00;1.80;;;;;;;22.84;38.49;100301.18;432316;1265;138850;-62
2023/09/05 15:25:41;;;;;;;1.90;1.70;;;;;;;22.76;38.14;100289.74;432428;1268;138475;-61
2023/09/05 15:35:47;;;;;;;4.20;2.10;;;;;;;22.87;38.11;100286.91;432236;1267;138685;-62
2023/09/05 15:45:54;;;;;;;5.40;2.60;;;;;;;22.73;38.02;100288.39;432151;1268;138990;-61
2023/09/05 15:56:01;;;;;;;2.10;1.90;;;;;;;22.54;37.91;100291.92;432057;1267;139606;-60
2023/09/05 16:06:06;;;;;;;4.20;2.40;;;;;;;22.37;38.02;100288.15;432205;1268;139538;-66
2023/09/05 16:16:15;;;;;;;4.70;2.00;;;;;;;22.10;38.76;100281.38;432277;1269;138782;-66
2023/09/05 16:26:21;;;;;;;4.90;3.10;;;;;;;21.83;39.78;100276.65;432120;1268;138857;-66
2023/09/05 16:36:27;;;;;;;8.50;2.70;;;;;;;21.52;40.70;100274.15;432125;1269;138718;-65
2023/09/05 16:46:33;;;;;;;6.10;2.90;;;;;;;21.15;41.60;100279.17;432693;1267;140427;-67
2023/09/05 16:56:38;;;;;;;14.70;3.70;;;;;;;20.78;42.85;100282.91;432237;1267;138784;-66
2023/09/05 17:06:44;;;;;;;9.90;3.60;;;;;;;20.33;44.23;100279.29;432591;1270;139409;-67
2023/09/05 17:16:50;;;;;;;7.70;5.00;;;;;;;19.82;46.38;100275.66;432804;1267;139277;-66
2023/09/05 17:26:56;;;;;;;13.60;5.70;;;;;;;19.28;48.40;100272.17;432956;1270;139435;-67
2023/09/05 17:37:03;;;;;;;12.80;4.90;;;;;;;18.73;50.27;100275.36;432713;1268;138868;-66
2023/09/05 17:47:08;;;;;;;8.50;5.30;;;;;;;18.22;52.51;100280.40;432546;1265;138946;-66
2023/09/05 17:57:14;;;;;;;12.70;5.20;;;;;;;17.77;53.98;100293.36;432452;1269;139710;-66
2023/09/05 18:07:22;;;;;;;14.80;6.70;;;;;;;17.39;56.06;100300.69;432349;1269;138654;-66
2023/09/05 18:17:28;;;;;;;26.90;14.30;;;;;;;17.00;57.96;100298.16;432335;1265;140367;-66
2023/09/05 18:27:34;;;;;;;10.10;6.30;;;;;;;16.61;59.43;100295.70;432052;1268;139358;-66
2023/09/05 18:37:40;;;;;;;13.60;6.20;;;;;;;16.24;60.69;100305.58;432343;1265;139397;-64
2023/09/05 18:47:46;;;;;;;17.80;7.50;;;;;;;15.90;61.81;100314.99;432128;1265;140160;-67
2023/09/05 18:57:52;;;;;;;10.30;6.20;;;;;;;15.63;63.02;100322.59;432111;1269;139707;-65
2023/09/05 19:07:58;;;;;;;7.80;5.90;;;;;;;15.41;64.09;100324.02;432178;1265;139785;-65
2023/09/05 19:18:04;;;;;;;13.10;7.60;;;;;;;15.19;64.69;100319.25;432387;1265;141006;-65
2023/09/05 19:28:10;;;;;;;12.60;7.00;;;;;;;14.98;65.28;100318.30;432449;1269;140016;-65
2023/09/05 19:38:16;;;;;;;15.50;11.40;;;;;;;14.82;65.75;100306.54;432164;1265;139990;-64
2023/09/05 19:48:27;;;;;;;15.10;9.80;;;;;;;14.67;66.34;100298.37;432078;1270;139588;-64
2023/09/05 19:58:34;;;;;;;15.40;10.00;;;;;;;14.46;67.18;100289.20;432323;1267;140175;-65
2023/09/05 20:08:40;;;;;;;17.60;9.10;;;;;;;14.26;67.89;100292.52;432420;1269;140269;-64
2023/09/05 20:18:47;;;;;;;18.50;8.80;;;;;;;14.12;68.86;100302.59;432166;1270;139744;-65
2023/09/05 20:28:53;;;;;;;18.20;8.40;;;;;;;13.99;69.46;100309.28;432142;1268;141060;-65
2023/09/05 20:38:59;;;;;;;13.10;9.40;;;;;;;13.82;70.18;100299.15;431735;1267;141563;-64
2023/09/05 20:49:05;;;;;;;15.00;10.10;;;;;;;13.65;70.78;100293.41;431794;1268;139435;-64
2023/09/05 20:59:11;;;;;;;16.10;6.90;;;;;;;13.52;71.73;100292.48;432331;1268;140402;-64
2023/09/05 21:09:17;;;;;;;16.40;7.80;;;;;;;13.42;72.86;100296.06;432059;1268;140076;-65
2023/09/05 21:19:25;;;;;;;9.60;7.10;;;;;;;13.35;73.44;100304.48;432392;1269;141211;-64
2023/09/05 21:29:30;;;;;;;17.00;8.10;;;;;;;13.22;73.48;100314.02;431968;1269;139537;-65
2023/09/05 21:39:36;;;;;;;11.70;7.50;;;;;;;13.09;73.99;100315.40;432050;1267;139674;-65
2023/09/05 21:49:42;;;;;;;16.90;8.20;;;;;;;12.98;74.40;100310.28;432139;1266;139455;-65
2023/09/05 21:59:48;;;;;;;11.40;8.70;;;;;;;12.86;74.89;100310.67;432178;1268;140799;-66
2023/09/05 22:09:54;;;;;;;17.10;9.60;;;;;;;12.76;75.81;100311.30;432140;1269;141098;-65
2023/09/05 22:20:00;;;;;;;16.10;9.30;;;;;;;12.69;76.55;100310.46;432325;1269;139431;-66
2023/09/05 22:30:08;;;;;;;11.90;8.30;;;;;;;12.60;76.86;100306.60;432452;1268;139784;-65
2023/09/05 22:40:17;;;;;;;;;;;;;;;12.51;77.32;100302.61;432194;1270;140916;-65
2023/09/05 22:50:23;;;;;;;16.10;7.90;;;;;;;12.39;77.29;100297.86;432432;1269;126803;-64
2023/09/05 23:00:29;;;;;;;16.50;9.40;;;;;;;12.29;77.86;100307.61;432305;1267;141286;-64
2023/09/05 23:10:37;;;;;;;12.60;8.60;;;;;;;12.23;78.62;100314.09;432138;1269;139986;-65
2023/09/05 23:20:42;;;;;;;14.60;9.50;;;;;;;12.14;79.26;100316.37;432161;1270;140041;-64
2023/09/05 23:30:48;;;;;;;18.50;9.60;;;;;;;12.07;79.75;100317.85;432695;1269;139488;-65
2023/09/05 23:40:56;;;;;;;19.70;11.00;;;;;;;12.02;80.65;100318.48;431993;1269;141182;-64
2023/09/05 23:51:03;;;;;;;14.20;9.80;;;;;;;12.00;81.14;100317.50;431930;1269;140729;-64
